sensor_id;sensor_type;location;lat;lon;timestamp;P1;durP1;ratioP1;P2;durP2;ratioP2
18973;SDS011;9621;48.690;9.466;2023-02-11T07:34:51;58.27;;;30.47;;
18973;SDS011;9621;48.690;9.466;2023-02-11T07:37:19;61.40;;;31.37;;
18973;SDS011;9621;48.690;9.466;2023-02-11T07:39:47;63.17;;;32.93;;
18973;SDS011;9621;48.690;9.466;2023-02-11T07:42:17;59.93;;;30.30;;
18973;SDS011;9621;48.690;9.466;2023-02-11T07:44:45;58.60;;;32.17;;
18973;SDS011;9621;48.690;9.466;2023-02-11T07:47:13;63.83;;;31.03;;
18973;SDS011;9621;48.690;9.466;2023-02-11T07:49:41;64.37;;;33.13;;
18973;SDS011;9621;48.690;9.466;2023-02-11T07:52:17;66.27;;;32.20;;
18973;SDS011;9621;48.690;9.466;2023-02-11T07:55:08;61.87;;;33.30;;
18973;SDS011;9621;48.690;9.466;2023-02-11T07:57:45;63.47;;;32.73;;
18973;SDS011;9621;48.690;9.466;2023-02-11T08:00:22;62.43;;;31.80;;
18973;SDS011;9621;48.690;9.466;2023-02-11T08:02:49;62.23;;;30.60;;
18973;SDS011;9621;48.690;9.466;2023-02-11T08:05:18;57.60;;;31.67;;
18973;SDS011;9621;48.690;9.466;2023-02-11T08:07:49;54.97;;;28.63;;
18973;SDS011;9621;48.690;9.466;2023-02-11T08:10:38;54.73;;;30.03;;
18973;SDS011;9621;48.690;9.466;2023-02-11T08:13:05;52.40;;;29.20;;
18973;SDS011;9621;48.690;9.466;2023-02-11T08:15:32;52.47;;;29.07;;
18973;SDS011;9621;48.690;9.466;2023-02-11T08:18:00;52.97;;;28.77;;
18973;SDS011;9621;48.690;9.466;2023-02-11T08:20:30;57.67;;;28.93;;
18973;SDS011;9621;48.690;9.466;2023-02-11T08:22:57;53.73;;;29.17;;
18973;SDS011;9621;48.690;9.466;2023-02-11T08:25:26;49.67;;;29.03;;
18973;SDS011;9621;48.690;9.466;2023-02-11T08:28:06;51.23;;;28.43;;
18973;SDS011;9621;48.690;9.466;2023-02-11T08:30:33;56.60;;;30.33;;
18973;SDS011;9621;48.690;9.466;2023-02-11T08:33:01;52.07;;;29.17;;
18973;SDS011;9621;48.690;9.466;2023-02-11T08:35:31;144.73;;;68.30;;
18973;SDS011;9621;48.690;9.466;2023-02-11T08:38:00;60.13;;;33.87;;
18973;SDS011;9621;48.690;9.466;2023-02-11T08:40:27;57.80;;;32.23;;
18973;SDS011;9621;48.690;9.466;2023-02-11T08:42:55;53.43;;;30.50;;
18973;SDS011;9621;48.690;9.466;2023-02-11T08:45:22;56.73;;;31.13;;
18973;SDS011;9621;48.690;9.466;2023-02-11T08:47:58;56.67;;;30.57;;
18973;SDS011;9621;48.690;9.466;2023-02-11T08:50:38;52.50;;;30.33;;
18973;SDS011;9621;48.690;9.466;2023-02-11T08:53:08;52.80;;;29.23;;
18973;SDS011;9621;48.690;9.466;2023-02-11T08:55:36;53.13;;;28.63;;
18973;SDS011;9621;48.690;9.466;2023-02-11T08:58:05;53.07;;;29.83;;
18973;SDS011;9621;48.690;9.466;2023-02-11T09:00:32;56.80;;;31.80;;
18973;SDS011;9621;48.690;9.466;2023-02-11T09:02:59;61.83;;;33.20;;
18973;SDS011;9621;48.690;9.466;2023-02-11T09:05:38;65.47;;;35.47;;
18973;SDS011;9621;48.690;9.466;2023-02-11T09:08:08;61.43;;;33.73;;
18973;SDS011;9621;48.690;9.466;2023-02-11T09:10:37;59.50;;;32.33;;
18973;SDS011;9621;48.690;9.466;2023-02-11T09:13:05;60.17;;;33.97;;
18973;SDS011;9621;48.690;9.466;2023-02-11T09:15:32;58.60;;;31.00;;
18973;SDS011;9621;48.690;9.466;2023-02-11T09:17:59;57.93;;;33.73;;
18973;SDS011;9621;48.690;9.466;2023-02-11T09:20:27;62.30;;;33.47;;
18973;SDS011;9621;48.690;9.466;2023-02-11T09:22:57;59.13;;;33.00;;
18973;SDS011;9621;48.690;9.466;2023-02-11T09:25:32;55.73;;;31.03;;
18973;SDS011;9621;48.690;9.466;2023-02-11T09:28:13;56.77;;;31.20;;
18973;SDS011;9621;48.690;9.466;2023-02-11T09:30:40;53.87;;;31.27;;
18973;SDS011;9621;48.690;9.466;2023-02-11T09:33:13;54.70;;;29.93;;
18973;SDS011;9621;48.690;9.466;2023-02-11T09:35:52;51.33;;;30.13;;
18973;SDS011;9621;48.690;9.466;2023-02-11T09:38:21;59.70;;;31.90;;
18973;SDS011;9621;48.690;9.466;2023-02-11T09:40:51;53.23;;;29.97;;
18973;SDS011;9621;48.690;9.466;2023-02-11T09:43:18;49.63;;;29.40;;
18973;SDS011;9621;48.690;9.466;2023-02-11T09:45:47;50.83;;;28.57;;
18973;SDS011;9621;48.690;9.466;2023-02-11T09:48:16;50.97;;;29.87;;
18973;SDS011;9621;48.690;9.466;2023-02-11T09:50:46;48.03;;;28.67;;
18973;SDS011;9621;48.690;9.466;2023-02-11T09:53:17;47.83;;;27.67;;
18973;SDS011;9621;48.690;9.466;2023-02-11T09:55:50;53.63;;;33.03;;
18973;SDS011;9621;48.690;9.466;2023-02-11T09:58:23;45.83;;;25.77;;
18973;SDS011;9621;48.690;9.466;2023-02-11T10:00:55;45.00;;;25.67;;
18973;SDS011;9621;48.690;9.466;2023-02-11T10:03:37;47.53;;;25.70;;
18973;SDS011;9621;48.690;9.466;2023-02-11T10:06:23;43.77;;;25.17;;
18973;SDS011;9621;48.690;9.466;2023-02-11T10:09:10;45.30;;;24.80;;
18973;SDS011;9621;48.690;9.466;2023-02-11T10:11:56;45.83;;;26.97;;
18973;SDS011;9621;48.690;9.466;2023-02-11T10:14:42;45.90;;;25.53;;
18973;SDS011;9621;48.690;9.466;2023-02-11T10:17:28;40.93;;;24.60;;
18973;SDS011;9621;48.690;9.466;2023-02-11T10:20:05;36.97;;;22.10;;
18973;SDS011;9621;48.690;9.466;2023-02-11T10:22:42;45.27;;;26.17;;
18973;SDS011;9621;48.690;9.466;2023-02-11T10:25:19;42.07;;;25.27;;
18973;SDS011;9621;48.690;9.466;2023-02-11T10:27:47;42.40;;;24.43;;
18973;SDS011;9621;48.690;9.466;2023-02-11T10:30:19;35.87;;;22.17;;
18973;SDS011;9621;48.690;9.466;2023-02-11T10:32:53;41.97;;;24.13;;
18973;SDS011;9621;48.690;9.466;2023-02-11T10:35:24;38.83;;;22.53;;
18973;SDS011;9621;48.690;9.466;2023-02-11T10:37:52;39.80;;;21.93;;
18973;SDS011;9621;48.690;9.466;2023-02-11T10:40:23;34.63;;;21.37;;
18973;SDS011;9621;48.690;9.466;2023-02-11T10:42:52;36.87;;;22.23;;
18973;SDS011;9621;48.690;9.466;2023-02-11T10:45:22;36.77;;;21.93;;
18973;SDS011;9621;48.690;9.466;2023-02-11T10:47:55;32.37;;;19.47;;
18973;SDS011;9621;48.690;9.466;2023-02-11T10:50:24;29.83;;;18.47;;
18973;SDS011;9621;48.690;9.466;2023-02-11T10:52:53;29.53;;;18.73;;
18973;SDS011;9621;48.690;9.466;2023-02-11T10:55:38;30.60;;;18.43;;
18973;SDS011;9621;48.690;9.466;2023-02-11T10:58:22;33.87;;;21.17;;
18973;SDS011;9621;48.690;9.466;2023-02-11T11:00:53;35.33;;;21.10;;
18973;SDS011;9621;48.690;9.466;2023-02-11T11:03:22;32.53;;;19.63;;
18973;SDS011;9621;48.690;9.466;2023-02-11T11:05:52;32.73;;;19.40;;
18973;SDS011;9621;48.690;9.466;2023-02-11T11:08:21;30.33;;;18.93;;
18973;SDS011;9621;48.690;9.466;2023-02-11T11:11:04;25.83;;;16.92;;
18973;SDS011;9621;48.690;9.466;2023-02-11T11:13:33;28.23;;;16.13;;
18973;SDS011;9621;48.690;9.466;2023-02-11T11:16:06;27.65;;;16.80;;
18973;SDS011;9621;48.690;9.466;2023-02-11T11:18:34;27.67;;;16.92;;
18973;SDS011;9621;48.690;9.466;2023-02-11T11:21:02;27.55;;;16.83;;
18973;SDS011;9621;48.690;9.466;2023-02-11T11:23:31;24.92;;;15.13;;
18973;SDS011;9621;48.690;9.466;2023-02-11T11:26:04;21.20;;;14.35;;
18973;SDS011;9621;48.690;9.466;2023-02-11T11:28:34;22.95;;;14.63;;
18973;SDS011;9621;48.690;9.466;2023-02-11T11:31:05;24.35;;;15.18;;
18973;SDS011;9621;48.690;9.466;2023-02-11T11:33:40;21.05;;;14.38;;
18973;SDS011;9621;48.690;9.466;2023-02-11T11:36:09;21.75;;;13.73;;
18973;SDS011;9621;48.690;9.466;2023-02-11T11:38:42;23.77;;;14.27;;
18973;SDS011;9621;48.690;9.466;2023-02-11T11:41:17;21.67;;;13.38;;
18973;SDS011;9621;48.690;9.466;2023-02-11T11:43:55;23.88;;;13.75;;
18973;SDS011;9621;48.690;9.466;2023-02-11T11:46:25;23.30;;;13.63;;
18973;SDS011;9621;48.690;9.466;2023-02-11T11:48:57;21.98;;;13.68;;
18973;SDS011;9621;48.690;9.466;2023-02-11T11:51:31;19.02;;;12.50;;
18973;SDS011;9621;48.690;9.466;2023-02-11T11:53:59;20.42;;;12.80;;
18973;SDS011;9621;48.690;9.466;2023-02-11T11:56:31;19.38;;;11.85;;
18973;SDS011;9621;48.690;9.466;2023-02-11T11:59:01;17.42;;;11.75;;
18973;SDS011;9621;48.690;9.466;2023-02-11T12:01:37;17.02;;;11.45;;
18973;SDS011;9621;48.690;9.466;2023-02-11T12:07:24;16.73;;;10.32;;
18973;SDS011;9621;48.690;9.466;2023-02-11T12:12:57;15.18;;;9.70;;
18973;SDS011;9621;48.690;9.466;2023-02-11T12:15:35;15.25;;;10.45;;
18973;SDS011;9621;48.690;9.466;2023-02-11T12:18:14;14.80;;;10.43;;
18973;SDS011;9621;48.690;9.466;2023-02-11T12:21:00;15.02;;;11.13;;
18973;SDS011;9621;48.690;9.466;2023-02-11T12:23:40;19.90;;;12.15;;
18973;SDS011;9621;48.690;9.466;2023-02-11T12:26:18;16.83;;;11.30;;
18973;SDS011;9621;48.690;9.466;2023-02-11T12:28:54;18.17;;;10.15;;
18973;SDS011;9621;48.690;9.466;2023-02-11T12:31:35;13.65;;;8.40;;
18973;SDS011;9621;48.690;9.466;2023-02-11T12:34:21;10.57;;;7.18;;
18973;SDS011;9621;48.690;9.466;2023-02-11T12:37:02;17.05;;;10.15;;
18973;SDS011;9621;48.690;9.466;2023-02-11T12:39:37;15.32;;;9.35;;
18973;SDS011;9621;48.690;9.466;2023-02-11T12:42:19;13.93;;;9.40;;
18973;SDS011;9621;48.690;9.466;2023-02-11T12:45:20;14.38;;;8.98;;
18973;SDS011;9621;48.690;9.466;2023-02-11T12:47:58;12.60;;;8.25;;
18973;SDS011;9621;48.690;9.466;2023-02-11T12:50:34;11.18;;;6.97;;
18973;SDS011;9621;48.690;9.466;2023-02-11T12:53:10;12.38;;;7.30;;
18973;SDS011;9621;48.690;9.466;2023-02-11T12:55:53;11.27;;;6.78;;
18973;SDS011;9621;48.690;9.466;2023-02-11T12:58:26;14.32;;;8.48;;
18973;SDS011;9621;48.690;9.466;2023-02-11T13:00:57;16.45;;;9.38;;
18973;SDS011;9621;48.690;9.466;2023-02-11T13:03:30;16.35;;;9.00;;
18973;SDS011;9621;48.690;9.466;2023-02-11T13:06:05;13.65;;;8.40;;
18973;SDS011;9621;48.690;9.466;2023-02-11T13:08:35;13.27;;;9.38;;
18973;SDS011;9621;48.690;9.466;2023-02-11T13:11:06;13.60;;;9.07;;
18973;SDS011;9621;48.690;9.466;2023-02-11T13:13:41;14.68;;;8.77;;
18973;SDS011;9621;48.690;9.466;2023-02-11T13:16:18;16.73;;;9.95;;
18973;SDS011;9621;48.690;9.466;2023-02-11T13:18:50;28.40;;;11.45;;
18973;SDS011;9621;48.690;9.466;2023-02-11T13:24:22;15.45;;;10.73;;
18973;SDS011;9621;48.690;9.466;2023-02-11T13:26:56;17.33;;;10.55;;
18973;SDS011;9621;48.690;9.466;2023-02-11T13:29:32;18.20;;;10.57;;
18973;SDS011;9621;48.690;9.466;2023-02-11T13:32:07;16.90;;;11.32;;
18973;SDS011;9621;48.690;9.466;2023-02-11T13:34:55;20.35;;;11.40;;
18973;SDS011;9621;48.690;9.466;2023-02-11T13:37:24;18.95;;;11.20;;
18973;SDS011;9621;48.690;9.466;2023-02-11T13:39:56;21.88;;;14.48;;
18973;SDS011;9621;48.690;9.466;2023-02-11T13:42:24;16.27;;;11.70;;
18973;SDS011;9621;48.690;9.466;2023-02-11T13:44:51;16.98;;;12.75;;
18973;SDS011;9621;48.690;9.466;2023-02-11T13:47:24;17.88;;;11.02;;
18973;SDS011;9621;48.690;9.466;2023-02-11T13:49:54;19.63;;;12.02;;
18973;SDS011;9621;48.690;9.466;2023-02-11T13:52:22;18.10;;;11.45;;
18973;SDS011;9621;48.690;9.466;2023-02-11T13:54:52;16.92;;;11.23;;
18973;SDS011;9621;48.690;9.466;2023-02-11T13:57:24;18.13;;;11.38;;
18973;SDS011;9621;48.690;9.466;2023-02-11T14:03:23;17.10;;;10.55;;
18973;SDS011;9621;48.690;9.466;2023-02-11T14:06:18;16.87;;;11.23;;
18973;SDS011;9621;48.690;9.466;2023-02-11T14:15:17;20.33;;;10.57;;
18973;SDS011;9621;48.690;9.466;2023-02-11T14:17:46;17.83;;;10.70;;
18973;SDS011;9621;48.690;9.466;2023-02-11T14:20:45;16.90;;;10.47;;
18973;SDS011;9621;48.690;9.466;2023-02-11T14:23:23;17.03;;;11.43;;
18973;SDS011;9621;48.690;9.466;2023-02-11T14:25:54;14.37;;;10.03;;
18973;SDS011;9621;48.690;9.466;2023-02-11T14:28:30;16.77;;;9.83;;
18973;SDS011;9621;48.690;9.466;2023-02-11T14:30:59;14.27;;;9.67;;
18973;SDS011;9621;48.690;9.466;2023-02-11T14:33:45;19.37;;;9.93;;
18973;SDS011;9621;48.690;9.466;2023-02-11T14:39:36;16.90;;;9.60;;
18973;SDS011;9621;48.690;9.466;2023-02-11T14:42:14;17.80;;;10.40;;
18973;SDS011;9621;48.690;9.466;2023-02-11T14:44:44;16.40;;;10.07;;
18973;SDS011;9621;48.690;9.466;2023-02-11T14:47:16;16.30;;;9.33;;
18973;SDS011;9621;48.690;9.466;2023-02-11T14:49:46;16.63;;;9.10;;
18973;SDS011;9621;48.690;9.466;2023-02-11T14:52:17;15.10;;;9.80;;
18973;SDS011;9621;48.690;9.466;2023-02-11T14:54:50;13.07;;;9.17;;
18973;SDS011;9621;48.690;9.466;2023-02-11T14:57:22;15.80;;;9.93;;
18973;SDS011;9621;48.690;9.466;2023-02-11T14:59:55;18.17;;;9.73;;
18973;SDS011;9621;48.690;9.466;2023-02-11T15:02:27;17.47;;;9.87;;
18973;SDS011;9621;48.690;9.466;2023-02-11T15:07:44;16.60;;;10.33;;
18973;SDS011;9621;48.690;9.466;2023-02-11T15:10:21;20.27;;;12.47;;
18973;SDS011;9621;48.690;9.466;2023-02-11T15:12:54;19.73;;;11.47;;
18973;SDS011;9621;48.690;9.466;2023-02-11T15:15:22;20.30;;;12.20;;
18973;SDS011;9621;48.690;9.466;2023-02-11T15:17:51;21.93;;;12.83;;
18973;SDS011;9621;48.690;9.466;2023-02-11T15:20:21;23.97;;;13.73;;
18973;SDS011;9621;48.690;9.466;2023-02-11T15:22:53;22.13;;;13.40;;
18973;SDS011;9621;48.690;9.466;2023-02-11T15:25:22;21.27;;;13.20;;
18973;SDS011;9621;48.690;9.466;2023-02-11T15:27:51;25.00;;;14.30;;
18973;SDS011;9621;48.690;9.466;2023-02-11T15:30:24;21.83;;;13.33;;
18973;SDS011;9621;48.690;9.466;2023-02-11T15:32:53;22.40;;;13.23;;
18973;SDS011;9621;48.690;9.466;2023-02-11T15:35:24;25.40;;;14.63;;
18973;SDS011;9621;48.690;9.466;2023-02-11T15:37:54;27.93;;;15.43;;
18973;SDS011;9621;48.690;9.466;2023-02-11T15:40:22;35.47;;;22.30;;
18973;SDS011;9621;48.690;9.466;2023-02-11T15:42:52;35.27;;;20.67;;
18973;SDS011;9621;48.690;9.466;2023-02-11T15:45:27;46.93;;;26.50;;
18973;SDS011;9621;48.690;9.466;2023-02-11T15:47:57;60.93;;;33.10;;
18973;SDS011;9621;48.690;9.466;2023-02-11T15:50:28;53.27;;;31.47;;
18973;SDS011;9621;48.690;9.466;2023-02-11T15:52:58;44.53;;;24.90;;
18973;SDS011;9621;48.690;9.466;2023-02-11T15:55:28;33.47;;;20.93;;
18973;SDS011;9621;48.690;9.466;2023-02-11T15:57:56;36.80;;;23.27;;
18973;SDS011;9621;48.690;9.466;2023-02-11T16:00:27;29.97;;;18.90;;
18973;SDS011;9621;48.690;9.466;2023-02-11T16:02:59;50.73;;;27.60;;
18973;SDS011;9621;48.690;9.466;2023-02-11T16:05:28;33.07;;;19.90;;
18973;SDS011;9621;48.690;9.466;2023-02-11T16:07:58;32.13;;;18.93;;
18973;SDS011;9621;48.690;9.466;2023-02-11T16:10:37;29.23;;;16.57;;
18973;SDS011;9621;48.690;9.466;2023-02-11T16:13:16;40.87;;;22.53;;
18973;SDS011;9621;48.690;9.466;2023-02-11T16:15:51;28.07;;;16.87;;
18973;SDS011;9621;48.690;9.466;2023-02-11T16:18:24;29.67;;;17.17;;
18973;SDS011;9621;48.690;9.466;2023-02-11T16:20:53;27.60;;;16.00;;
18973;SDS011;9621;48.690;9.466;2023-02-11T16:23:23;32.13;;;18.27;;
18973;SDS011;9621;48.690;9.466;2023-02-11T16:25:55;37.20;;;20.60;;
18973;SDS011;9621;48.690;9.466;2023-02-11T16:28:25;32.40;;;18.87;;
18973;SDS011;9621;48.690;9.466;2023-02-11T16:30:53;47.30;;;22.83;;
18973;SDS011;9621;48.690;9.466;2023-02-11T16:33:21;58.90;;;26.70;;
18973;SDS011;9621;48.690;9.466;2023-02-11T16:35:48;49.77;;;25.27;;
18973;SDS011;9621;48.690;9.466;2023-02-11T16:38:15;37.80;;;22.23;;
18973;SDS011;9621;48.690;9.466;2023-02-11T16:40:45;39.77;;;23.57;;
18973;SDS011;9621;48.690;9.466;2023-02-11T16:43:15;33.97;;;19.07;;
18973;SDS011;9621;48.690;9.466;2023-02-11T16:45:44;33.60;;;19.27;;
18973;SDS011;9621;48.690;9.466;2023-02-11T16:48:12;30.80;;;18.80;;
18973;SDS011;9621;48.690;9.466;2023-02-11T16:50:44;30.17;;;17.30;;
18973;SDS011;9621;48.690;9.466;2023-02-11T16:53:12;28.77;;;18.03;;
18973;SDS011;9621;48.690;9.466;2023-02-11T16:55:45;35.53;;;18.37;;
18973;SDS011;9621;48.690;9.466;2023-02-11T16:58:13;30.03;;;16.70;;
18973;SDS011;9621;48.690;9.466;2023-02-11T17:00:40;31.77;;;18.37;;
18973;SDS011;9621;48.690;9.466;2023-02-11T17:03:09;31.87;;;17.93;;
18973;SDS011;9621;48.690;9.466;2023-02-11T17:05:42;52.73;;;26.17;;
18973;SDS011;9621;48.690;9.466;2023-02-11T17:08:10;66.97;;;32.40;;
18973;SDS011;9621;48.690;9.466;2023-02-11T17:10:40;76.63;;;37.57;;
18973;SDS011;9621;48.690;9.466;2023-02-11T17:13:08;53.03;;;26.53;;
18973;SDS011;9621;48.690;9.466;2023-02-11T17:15:35;39.03;;;21.73;;
18973;SDS011;9621;48.690;9.466;2023-02-11T17:18:02;40.93;;;22.47;;
18973;SDS011;9621;48.690;9.466;2023-02-11T17:20:29;35.37;;;21.33;;
18973;SDS011;9621;48.690;9.466;2023-02-11T17:22:56;36.87;;;22.43;;
18973;SDS011;9621;48.690;9.466;2023-02-11T17:25:23;33.60;;;20.03;;
18973;SDS011;9621;48.690;9.466;2023-02-11T17:27:50;36.33;;;19.00;;
18973;SDS011;9621;48.690;9.466;2023-02-11T17:30:19;35.90;;;18.73;;
18973;SDS011;9621;48.690;9.466;2023-02-11T17:32:47;28.90;;;18.33;;
18973;SDS011;9621;48.690;9.466;2023-02-11T17:35:16;31.07;;;18.57;;
18973;SDS011;9621;48.690;9.466;2023-02-11T17:37:43;31.80;;;17.80;;
18973;SDS011;9621;48.690;9.466;2023-02-11T17:40:10;32.80;;;19.77;;
18973;SDS011;9621;48.690;9.466;2023-02-11T17:42:38;32.50;;;17.87;;
18973;SDS011;9621;48.690;9.466;2023-02-11T17:45:05;33.73;;;19.03;;
18973;SDS011;9621;48.690;9.466;2023-02-11T17:47:35;32.30;;;19.13;;
18973;SDS011;9621;48.690;9.466;2023-02-11T17:50:03;30.77;;;17.63;;
18973;SDS011;9621;48.690;9.466;2023-02-11T17:52:30;29.50;;;18.03;;
18973;SDS011;9621;48.690;9.466;2023-02-11T17:54:57;29.23;;;18.13;;
18973;SDS011;9621;48.690;9.466;2023-02-11T17:57:24;31.63;;;18.83;;
18973;SDS011;9621;48.690;9.466;2023-02-11T17:59:51;36.57;;;19.53;;
18973;SDS011;9621;48.690;9.466;2023-02-11T18:02:18;30.67;;;18.20;;
18973;SDS011;9621;48.690;9.466;2023-02-11T18:04:47;28.87;;;16.90;;
18973;SDS011;9621;48.690;9.466;2023-02-11T18:07:14;24.80;;;16.40;;
18973;SDS011;9621;48.690;9.466;2023-02-11T18:09:41;28.83;;;17.50;;
18973;SDS011;9621;48.690;9.466;2023-02-11T18:12:09;28.17;;;18.33;;
18973;SDS011;9621;48.690;9.466;2023-02-11T18:14:36;41.43;;;26.60;;
18973;SDS011;9621;48.690;9.466;2023-02-11T18:17:04;47.63;;;25.73;;
18973;SDS011;9621;48.690;9.466;2023-02-11T18:19:34;50.97;;;27.27;;
18973;SDS011;9621;48.690;9.466;2023-02-11T18:22:03;43.47;;;22.77;;
18973;SDS011;9621;48.690;9.466;2023-02-11T18:24:30;44.33;;;22.47;;
18973;SDS011;9621;48.690;9.466;2023-02-11T18:26:57;33.20;;;20.70;;
18973;SDS011;9621;48.690;9.466;2023-02-11T18:29:25;42.73;;;22.73;;
18973;SDS011;9621;48.690;9.466;2023-02-11T18:31:53;50.47;;;25.73;;
18973;SDS011;9621;48.690;9.466;2023-02-11T18:34:21;49.00;;;24.70;;
18973;SDS011;9621;48.690;9.466;2023-02-11T18:36:50;46.80;;;23.00;;
18973;SDS011;9621;48.690;9.466;2023-02-11T18:39:19;44.10;;;24.00;;
18973;SDS011;9621;48.690;9.466;2023-02-11T18:41:48;50.10;;;24.43;;
18973;SDS011;9621;48.690;9.466;2023-02-11T18:44:18;48.90;;;21.93;;
18973;SDS011;9621;48.690;9.466;2023-02-11T18:46:47;33.53;;;18.07;;
18973;SDS011;9621;48.690;9.466;2023-02-11T18:49:15;31.03;;;17.37;;
18973;SDS011;9621;48.690;9.466;2023-02-11T18:51:42;31.07;;;18.93;;
18973;SDS011;9621;48.690;9.466;2023-02-11T18:54:09;30.80;;;18.00;;
18973;SDS011;9621;48.690;9.466;2023-02-11T18:56:38;30.43;;;18.27;;
18973;SDS011;9621;48.690;9.466;2023-02-11T18:59:07;33.87;;;19.27;;
18973;SDS011;9621;48.690;9.466;2023-02-11T19:01:34;34.57;;;19.67;;
18973;SDS011;9621;48.690;9.466;2023-02-11T19:04:04;34.63;;;19.70;;
18973;SDS011;9621;48.690;9.466;2023-02-11T19:06:34;32.27;;;19.13;;
18973;SDS011;9621;48.690;9.466;2023-02-11T19:09:03;32.17;;;18.60;;
18973;SDS011;9621;48.690;9.466;2023-02-11T19:11:33;34.90;;;18.10;;
18973;SDS011;9621;48.690;9.466;2023-02-11T19:14:16;32.13;;;17.63;;
18973;SDS011;9621;48.690;9.466;2023-02-11T19:16:47;33.00;;;18.40;;
18973;SDS011;9621;48.690;9.466;2023-02-11T19:19:15;27.80;;;17.40;;
18973;SDS011;9621;48.690;9.466;2023-02-11T19:21:43;27.80;;;16.30;;
18973;SDS011;9621;48.690;9.466;2023-02-11T19:24:11;30.10;;;18.67;;
18973;SDS011;9621;48.690;9.466;2023-02-11T19:26:44;31.77;;;16.10;;
18973;SDS011;9621;48.690;9.466;2023-02-11T19:29:12;29.17;;;16.67;;
18973;SDS011;9621;48.690;9.466;2023-02-11T19:31:43;30.80;;;17.97;;
18973;SDS011;9621;48.690;9.466;2023-02-11T19:34:18;29.67;;;17.00;;
18973;SDS011;9621;48.690;9.466;2023-02-11T19:36:47;29.50;;;16.90;;
18973;SDS011;9621;48.690;9.466;2023-02-11T19:39:23;30.60;;;17.03;;
18973;SDS011;9621;48.690;9.466;2023-02-11T19:41:52;41.57;;;19.13;;
18973;SDS011;9621;48.690;9.466;2023-02-11T19:44:21;47.97;;;24.10;;
18973;SDS011;9621;48.690;9.466;2023-02-11T19:46:48;64.40;;;26.23;;
18973;SDS011;9621;48.690;9.466;2023-02-11T19:49:17;50.87;;;22.77;;
18973;SDS011;9621;48.690;9.466;2023-02-11T19:51:54;44.67;;;21.63;;
18973;SDS011;9621;48.690;9.466;2023-02-11T19:54:33;39.83;;;21.63;;
18973;SDS011;9621;48.690;9.466;2023-02-11T19:57:02;38.13;;;21.40;;
18973;SDS011;9621;48.690;9.466;2023-02-11T19:59:29;43.23;;;22.50;;
18973;SDS011;9621;48.690;9.466;2023-02-11T20:01:56;38.93;;;21.67;;
18973;SDS011;9621;48.690;9.466;2023-02-11T20:04:34;43.07;;;22.73;;
18973;SDS011;9621;48.690;9.466;2023-02-11T20:07:02;46.63;;;23.83;;
18973;SDS011;9621;48.690;9.466;2023-02-11T20:09:44;39.97;;;21.80;;
18973;SDS011;9621;48.690;9.466;2023-02-11T20:12:13;36.57;;;20.77;;
18973;SDS011;9621;48.690;9.466;2023-02-11T20:14:40;37.63;;;21.17;;
18973;SDS011;9621;48.690;9.466;2023-02-11T20:17:07;37.30;;;20.33;;
18973;SDS011;9621;48.690;9.466;2023-02-11T20:19:35;36.40;;;20.47;;
18973;SDS011;9621;48.690;9.466;2023-02-11T20:22:02;34.40;;;19.90;;
18973;SDS011;9621;48.690;9.466;2023-02-11T20:24:32;35.03;;;19.57;;
18973;SDS011;9621;48.690;9.466;2023-02-11T20:27:06;41.93;;;21.77;;
18973;SDS011;9621;48.690;9.466;2023-02-11T20:29:50;38.23;;;21.20;;
18973;SDS011;9621;48.690;9.466;2023-02-11T20:32:20;43.80;;;20.53;;
18973;SDS011;9621;48.690;9.466;2023-02-11T20:34:47;47.50;;;22.53;;
18973;SDS011;9621;48.690;9.466;2023-02-11T20:37:15;40.57;;;23.70;;
18973;SDS011;9621;48.690;9.466;2023-02-11T20:39:48;39.30;;;23.43;;
18973;SDS011;9621;48.690;9.466;2023-02-11T20:42:19;38.93;;;23.60;;
18973;SDS011;9621;48.690;9.466;2023-02-11T20:44:50;41.67;;;22.73;;
18973;SDS011;9621;48.690;9.466;2023-02-11T20:47:17;38.40;;;22.90;;
18973;SDS011;9621;48.690;9.466;2023-02-11T20:49:46;38.73;;;22.60;;
18973;SDS011;9621;48.690;9.466;2023-02-11T20:52:13;40.17;;;23.70;;
18973;SDS011;9621;48.690;9.466;2023-02-11T20:54:41;42.77;;;23.93;;
18973;SDS011;9621;48.690;9.466;2023-02-11T20:57:08;42.30;;;22.27;;
18973;SDS011;9621;48.690;9.466;2023-02-11T20:59:35;40.13;;;22.50;;
18973;SDS011;9621;48.690;9.466;2023-02-11T21:02:04;41.77;;;22.40;;
18973;SDS011;9621;48.690;9.466;2023-02-11T21:04:32;37.67;;;22.10;;
18973;SDS011;9621;48.690;9.466;2023-02-11T21:06:59;39.73;;;22.73;;
18973;SDS011;9621;48.690;9.466;2023-02-11T21:09:29;40.40;;;22.13;;
18973;SDS011;9621;48.690;9.466;2023-02-11T21:11:57;37.50;;;21.60;;
18973;SDS011;9621;48.690;9.466;2023-02-11T21:14:24;34.33;;;19.67;;
18973;SDS011;9621;48.690;9.466;2023-02-11T21:16:52;31.70;;;18.93;;
18973;SDS011;9621;48.690;9.466;2023-02-11T21:19:20;35.17;;;18.63;;
18973;SDS011;9621;48.690;9.466;2023-02-11T21:21:47;34.97;;;20.80;;
18973;SDS011;9621;48.690;9.466;2023-02-11T21:24:14;40.80;;;22.57;;
18973;SDS011;9621;48.690;9.466;2023-02-11T21:26:41;35.43;;;20.57;;
18973;SDS011;9621;48.690;9.466;2023-02-11T21:29:08;33.10;;;20.10;;
18973;SDS011;9621;48.690;9.466;2023-02-11T21:31:36;40.30;;;21.87;;
18973;SDS011;9621;48.690;9.466;2023-02-11T21:34:03;37.77;;;21.23;;
18973;SDS011;9621;48.690;9.466;2023-02-11T21:36:32;38.10;;;20.57;;
18973;SDS011;9621;48.690;9.466;2023-02-11T21:38:59;34.37;;;20.53;;
18973;SDS011;9621;48.690;9.466;2023-02-11T21:41:28;34.07;;;18.70;;
18973;SDS011;9621;48.690;9.466;2023-02-11T21:43:55;31.00;;;18.47;;
18973;SDS011;9621;48.690;9.466;2023-02-11T21:46:23;32.53;;;18.67;;
18973;SDS011;9621;48.690;9.466;2023-02-11T21:48:50;29.63;;;17.60;;
18973;SDS011;9621;48.690;9.466;2023-02-11T21:51:18;30.37;;;17.80;;
18973;SDS011;9621;48.690;9.466;2023-02-11T21:53:51;33.13;;;18.20;;
18973;SDS011;9621;48.690;9.466;2023-02-11T21:56:18;28.83;;;17.33;;
18973;SDS011;9621;48.690;9.466;2023-02-11T21:58:46;30.37;;;17.83;;
18973;SDS011;9621;48.690;9.466;2023-02-11T22:01:19;27.87;;;17.17;;
18973;SDS011;9621;48.690;9.466;2023-02-11T22:03:47;28.77;;;17.43;;
18973;SDS011;9621;48.690;9.466;2023-02-11T22:06:15;32.27;;;18.37;;
18973;SDS011;9621;48.690;9.466;2023-02-11T22:08:45;34.07;;;19.80;;
18973;SDS011;9621;48.690;9.466;2023-02-11T22:11:14;33.83;;;20.43;;
18973;SDS011;9621;48.690;9.466;2023-02-11T22:13:41;28.83;;;18.20;;
18973;SDS011;9621;48.690;9.466;2023-02-11T22:16:09;32.47;;;18.60;;
18973;SDS011;9621;48.690;9.466;2023-02-11T22:18:37;31.37;;;18.57;;
18973;SDS011;9621;48.690;9.466;2023-02-11T22:21:07;33.60;;;19.27;;
18973;SDS011;9621;48.690;9.466;2023-02-11T22:23:35;34.47;;;19.40;;
18973;SDS011;9621;48.690;9.466;2023-02-11T22:26:05;32.20;;;18.27;;
18973;SDS011;9621;48.690;9.466;2023-02-11T22:28:34;29.93;;;18.80;;
18973;SDS011;9621;48.690;9.466;2023-02-11T22:31:03;32.07;;;18.40;;
18973;SDS011;9621;48.690;9.466;2023-02-11T22:33:30;30.83;;;19.43;;
18973;SDS011;9621;48.690;9.466;2023-02-11T22:35:58;31.93;;;19.30;;
18973;SDS011;9621;48.690;9.466;2023-02-11T22:38:26;37.17;;;22.73;;
18973;SDS011;9621;48.690;9.466;2023-02-11T22:40:53;51.07;;;27.93;;
18973;SDS011;9621;48.690;9.466;2023-02-11T22:43:22;63.03;;;30.83;;
18973;SDS011;9621;48.690;9.466;2023-02-11T22:45:49;56.47;;;29.90;;
18973;SDS011;9621;48.690;9.466;2023-02-11T22:48:16;49.47;;;24.87;;
18973;SDS011;9621;48.690;9.466;2023-02-11T22:50:44;46.43;;;24.40;;
18973;SDS011;9621;48.690;9.466;2023-02-11T22:53:11;46.97;;;25.17;;
18973;SDS011;9621;48.690;9.466;2023-02-11T22:55:38;43.80;;;25.30;;
18973;SDS011;9621;48.690;9.466;2023-02-11T22:58:05;46.80;;;27.23;;